sensor_id;sensor_type;location;lat;lon;timestamp;temperature;humidity
15103;DHT22;7652;53.584;9.998;2023-05-13T00:00:02;13.80;99.90
15103;DHT22;7652;53.584;9.998;2023-05-13T00:03:24;13.70;99.90
15103;DHT22;7652;53.584;9.998;2023-05-13T00:06:46;13.60;99.90
15103;DHT22;7652;53.584;9.998;2023-05-13T00:10:08;13.60;99.90
15103;DHT22;7652;53.584;9.998;2023-05-13T00:13:32;13.60;99.90
15103;DHT22;7652;53.584;9.998;2023-05-13T00:16:53;13.60;99.90
15103;DHT22;7652;53.584;9.998;2023-05-13T00:20:15;13.40;99.90
15103;DHT22;7652;53.584;9.998;2023-05-13T00:23:37;13.40;99.90
15103;DHT22;7652;53.584;9.998;2023-05-13T00:26:58;13.30;99.90
15103;DHT22;7652;53.584;9.998;2023-05-13T00:30:21;13.30;99.90
15103;DHT22;7652;53.584;9.998;2023-05-13T00:33:43;13.30;99.90
15103;DHT22;7652;53.584;9.998;2023-05-13T00:37:05;13.20;99.90
15103;DHT22;7652;53.584;9.998;2023-05-13T00:40:29;13.20;99.90
15103;DHT22;7652;53.584;9.998;2023-05-13T00:43:53;13.20;99.90
15103;DHT22;7652;53.584;9.998;2023-05-13T00:47:17;13.20;99.90
15103;DHT22;7652;53.584;9.998;2023-05-13T00:50:38;13.30;99.90
15103;DHT22;7652;53.584;9.998;2023-05-13T00:54:01;13.20;99.90
15103;DHT22;7652;53.584;9.998;2023-05-13T00:57:22;13.10;99.90
15103;DHT22;7652;53.584;9.998;2023-05-13T01:00:49;13.10;99.90
15103;DHT22;7652;53.584;9.998;2023-05-13T01:04:19;13.10;99.90
15103;DHT22;7652;53.584;9.998;2023-05-13T01:07:45;13.00;99.90
15103;DHT22;7652;53.584;9.998;2023-05-13T01:11:13;13.00;99.90
15103;DHT22;7652;53.584;9.998;2023-05-13T01:14:41;13.00;99.90
15103;DHT22;7652;53.584;9.998;2023-05-13T01:18:08;13.00;99.90
15103;DHT22;7652;53.584;9.998;2023-05-13T01:21:35;13.00;99.90
15103;DHT22;7652;53.584;9.998;2023-05-13T01:24:59;13.00;99.90
15103;DHT22;7652;53.584;9.998;2023-05-13T01:28:20;12.90;99.90
15103;DHT22;7652;53.584;9.998;2023-05-13T01:31:42;12.90;99.90
15103;DHT22;7652;53.584;9.998;2023-05-13T01:35:07;12.90;99.90
15103;DHT22;7652;53.584;9.998;2023-05-13T01:38:31;12.80;99.90
15103;DHT22;7652;53.584;9.998;2023-05-13T01:41:53;12.70;99.90
15103;DHT22;7652;53.584;9.998;2023-05-13T01:45:14;12.70;99.90
15103;DHT22;7652;53.584;9.998;2023-05-13T01:48:35;12.70;99.90
15103;DHT22;7652;53.584;9.998;2023-05-13T01:51:57;12.60;99.90
15103;DHT22;7652;53.584;9.998;2023-05-13T01:55:20;12.70;99.90
15103;DHT22;7652;53.584;9.998;2023-05-13T01:58:42;12.70;99.90
15103;DHT22;7652;53.584;9.998;2023-05-13T02:02:03;12.60;99.90
15103;DHT22;7652;53.584;9.998;2023-05-13T02:05:25;12.60;99.90
15103;DHT22;7652;53.584;9.998;2023-05-13T02:08:46;12.50;99.90
15103;DHT22;7652;53.584;9.998;2023-05-13T02:12:09;12.50;99.90
15103;DHT22;7652;53.584;9.998;2023-05-13T02:15:30;12.50;99.90
15103;DHT22;7652;53.584;9.998;2023-05-13T02:18:52;12.50;99.90
15103;DHT22;7652;53.584;9.998;2023-05-13T02:22:13;12.50;99.90
15103;DHT22;7652;53.584;9.998;2023-05-13T02:25:35;12.40;99.90
15103;DHT22;7652;53.584;9.998;2023-05-13T02:28:57;12.40;99.90
15103;DHT22;7652;53.584;9.998;2023-05-13T02:32:19;12.30;99.90
15103;DHT22;7652;53.584;9.998;2023-05-13T02:35:41;12.30;99.90
15103;DHT22;7652;53.584;9.998;2023-05-13T02:39:03;12.20;99.90
15103;DHT22;7652;53.584;9.998;2023-05-13T02:42:24;12.20;99.90
15103;DHT22;7652;53.584;9.998;2023-05-13T02:45:47;12.20;99.90
15103;DHT22;7652;53.584;9.998;2023-05-13T02:49:09;12.20;99.90
15103;DHT22;7652;53.584;9.998;2023-05-13T02:52:30;12.20;99.90
15103;DHT22;7652;53.584;9.998;2023-05-13T02:55:53;12.20;99.90
15103;DHT22;7652;53.584;9.998;2023-05-13T02:59:14;12.10;99.90
15103;DHT22;7652;53.584;9.998;2023-05-13T03:02:38;12.10;99.90
15103;DHT22;7652;53.584;9.998;2023-05-13T03:06:00;12.00;99.90
15103;DHT22;7652;53.584;9.998;2023-05-13T03:09:21;12.00;99.90
15103;DHT22;7652;53.584;9.998;2023-05-13T03:12:42;12.00;99.90
15103;DHT22;7652;53.584;9.998;2023-05-13T03:16:04;11.90;99.90
15103;DHT22;7652;53.584;9.998;2023-05-13T03:19:27;11.80;99.90
15103;DHT22;7652;53.584;9.998;2023-05-13T03:22:48;11.80;99.90
15103;DHT22;7652;53.584;9.998;2023-05-13T03:26:10;11.80;99.90
15103;DHT22;7652;53.584;9.998;2023-05-13T03:29:31;11.70;99.90
15103;DHT22;7652;53.584;9.998;2023-05-13T03:32:53;11.60;99.90
15103;DHT22;7652;53.584;9.998;2023-05-13T03:36:17;11.50;99.90
15103;DHT22;7652;53.584;9.998;2023-05-13T03:39:38;11.60;99.90
15103;DHT22;7652;53.584;9.998;2023-05-13T03:42:59;11.60;99.90
15103;DHT22;7652;53.584;9.998;2023-05-13T03:46:21;11.50;99.90
15103;DHT22;7652;53.584;9.998;2023-05-13T03:49:42;11.50;99.90
15103;DHT22;7652;53.584;9.998;2023-05-13T03:53:05;11.50;99.90
15103;DHT22;7652;53.584;9.998;2023-05-13T03:56:27;11.60;99.90
15103;DHT22;7652;53.584;9.998;2023-05-13T03:59:48;11.70;99.90
15103;DHT22;7652;53.584;9.998;2023-05-13T04:03:10;11.70;99.90
15103;DHT22;7652;53.584;9.998;2023-05-13T04:06:31;11.70;99.90
15103;DHT22;7652;53.584;9.998;2023-05-13T04:09:54;11.70;99.90
15103;DHT22;7652;53.584;9.998;2023-05-13T04:13:16;11.70;99.90
15103;DHT22;7652;53.584;9.998;2023-05-13T04:16:37;11.80;99.90
15103;DHT22;7652;53.584;9.998;2023-05-13T04:19:59;11.80;99.90
15103;DHT22;7652;53.584;9.998;2023-05-13T04:23:20;11.80;99.90
15103;DHT22;7652;53.584;9.998;2023-05-13T04:26:43;11.80;99.90
15103;DHT22;7652;53.584;9.998;2023-05-13T04:30:05;11.80;99.90
15103;DHT22;7652;53.584;9.998;2023-05-13T04:33:27;11.80;99.90
15103;DHT22;7652;53.584;9.998;2023-05-13T04:36:48;11.90;99.90
15103;DHT22;7652;53.584;9.998;2023-05-13T04:40:10;11.80;99.90
15103;DHT22;7652;53.584;9.998;2023-05-13T04:43:33;11.90;99.90
15103;DHT22;7652;53.584;9.998;2023-05-13T04:46:54;12.00;99.90
15103;DHT22;7652;53.584;9.998;2023-05-13T04:50:16;12.10;99.90
15103;DHT22;7652;53.584;9.998;2023-05-13T04:53:38;12.20;99.90
15103;DHT22;7652;53.584;9.998;2023-05-13T04:56:59;12.30;99.90
15103;DHT22;7652;53.584;9.998;2023-05-13T05:00:22;12.40;99.90
15103;DHT22;7652;53.584;9.998;2023-05-13T05:03:44;12.40;99.90
15103;DHT22;7652;53.584;9.998;2023-05-13T05:07:05;12.40;99.90
15103;DHT22;7652;53.584;9.998;2023-05-13T05:10:27;12.50;99.90
15103;DHT22;7652;53.584;9.998;2023-05-13T05:13:48;12.50;99.90
15103;DHT22;7652;53.584;9.998;2023-05-13T05:17:11;12.80;99.90
15103;DHT22;7652;53.584;9.998;2023-05-13T05:20:32;12.90;99.90
15103;DHT22;7652;53.584;9.998;2023-05-13T05:23:53;13.00;99.90
15103;DHT22;7652;53.584;9.998;2023-05-13T05:27:16;13.20;99.90
15103;DHT22;7652;53.584;9.998;2023-05-13T05:30:38;13.50;99.90
15103;DHT22;7652;53.584;9.998;2023-05-13T05:34:01;13.70;99.90
15103;DHT22;7652;53.584;9.998;2023-05-13T05:37:22;14.10;99.90
15103;DHT22;7652;53.584;9.998;2023-05-13T05:40:44;14.30;99.90
15103;DHT22;7652;53.584;9.998;2023-05-13T05:44:05;14.90;99.90
15103;DHT22;7652;53.584;9.998;2023-05-13T05:47:27;15.40;99.90
15103;DHT22;7652;53.584;9.998;2023-05-13T05:50:50;15.90;99.90
15103;DHT22;7652;53.584;9.998;2023-05-13T05:54:11;16.30;99.90
15103;DHT22;7652;53.584;9.998;2023-05-13T05:57:33;16.90;99.90
15103;DHT22;7652;53.584;9.998;2023-05-13T06:00:54;17.30;99.90
15103;DHT22;7652;53.584;9.998;2023-05-13T06:04:16;17.70;99.90
15103;DHT22;7652;53.584;9.998;2023-05-13T06:07:39;18.30;99.90
15103;DHT22;7652;53.584;9.998;2023-05-13T06:11:00;19.00;99.90
15103;DHT22;7652;53.584;9.998;2023-05-13T06:14:22;19.20;99.90
15103;DHT22;7652;53.584;9.998;2023-05-13T06:17:43;19.70;99.90
15103;DHT22;7652;53.584;9.998;2023-05-13T06:21:04;20.10;99.90
15103;DHT22;7652;53.584;9.998;2023-05-13T06:24:27;20.50;99.90
15103;DHT22;7652;53.584;9.998;2023-05-13T06:27:49;21.00;99.90
15103;DHT22;7652;53.584;9.998;2023-05-13T06:31:10;21.00;99.90
15103;DHT22;7652;53.584;9.998;2023-05-13T06:34:32;20.80;99.90
15103;DHT22;7652;53.584;9.998;2023-05-13T06:37:53;20.80;99.90
15103;DHT22;7652;53.584;9.998;2023-05-13T06:41:16;20.30;99.90
15103;DHT22;7652;53.584;9.998;2023-05-13T06:44:38;20.10;99.90
15103;DHT22;7652;53.584;9.998;2023-05-13T06:48:00;20.00;99.90
15103;DHT22;7652;53.584;9.998;2023-05-13T06:51:21;20.00;99.90
15103;DHT22;7652;53.584;9.998;2023-05-13T06:54:42;19.70;99.90
15103;DHT22;7652;53.584;9.998;2023-05-13T06:58:05;19.40;99.90
15103;DHT22;7652;53.584;9.998;2023-05-13T07:01:27;19.00;99.90
15103;DHT22;7652;53.584;9.998;2023-05-13T07:04:48;19.00;99.90
15103;DHT22;7652;53.584;9.998;2023-05-13T07:08:09;19.00;99.90
15103;DHT22;7652;53.584;9.998;2023-05-13T07:11:36;19.00;99.90
15103;DHT22;7652;53.584;9.998;2023-05-13T07:14:59;19.10;99.90
15103;DHT22;7652;53.584;9.998;2023-05-13T07:18:20;19.00;99.90
15103;DHT22;7652;53.584;9.998;2023-05-13T07:21:43;19.00;99.90
15103;DHT22;7652;53.584;9.998;2023-05-13T07:25:05;19.20;99.90
15103;DHT22;7652;53.584;9.998;2023-05-13T07:28:26;19.20;99.90
15103;DHT22;7652;53.584;9.998;2023-05-13T07:31:49;19.20;99.90
15103;DHT22;7652;53.584;9.998;2023-05-13T07:35:11;19.30;99.90
15103;DHT22;7652;53.584;9.998;2023-05-13T07:38:32;19.50;99.90
15103;DHT22;7652;53.584;9.998;2023-05-13T07:41:54;19.70;99.90
15103;DHT22;7652;53.584;9.998;2023-05-13T07:45:15;20.10;99.90
15103;DHT22;7652;53.584;9.998;2023-05-13T07:48:38;20.60;99.90
15103;DHT22;7652;53.584;9.998;2023-05-13T07:52:00;20.80;99.90
15103;DHT22;7652;53.584;9.998;2023-05-13T07:55:21;21.00;99.90
15103;DHT22;7652;53.584;9.998;2023-05-13T07:58:43;21.00;99.90
15103;DHT22;7652;53.584;9.998;2023-05-13T08:02:05;21.20;99.90
15103;DHT22;7652;53.584;9.998;2023-05-13T08:05:28;21.00;99.90
15103;DHT22;7652;53.584;9.998;2023-05-13T08:08:49;20.80;99.90
15103;DHT22;7652;53.584;9.998;2023-05-13T08:12:11;20.80;99.90
15103;DHT22;7652;53.584;9.998;2023-05-13T08:15:32;20.90;99.90
15103;DHT22;7652;53.584;9.998;2023-05-13T08:18:54;21.10;99.90
15103;DHT22;7652;53.584;9.998;2023-05-13T08:22:17;21.10;99.90
15103;DHT22;7652;53.584;9.998;2023-05-13T08:25:38;21.10;99.90
15103;DHT22;7652;53.584;9.998;2023-05-13T08:28:59;21.20;99.90
15103;DHT22;7652;53.584;9.998;2023-05-13T08:32:21;21.30;99.90
15103;DHT22;7652;53.584;9.998;2023-05-13T08:35:42;21.60;99.90
15103;DHT22;7652;53.584;9.998;2023-05-13T08:39:05;21.70;98.30
15103;DHT22;7652;53.584;9.998;2023-05-13T08:42:28;22.30;98.10
15103;DHT22;7652;53.584;9.998;2023-05-13T08:45:53;22.80;96.80
15103;DHT22;7652;53.584;9.998;2023-05-13T08:49:16;23.20;95.60
15103;DHT22;7652;53.584;9.998;2023-05-13T08:52:38;23.10;95.40
15103;DHT22;7652;53.584;9.998;2023-05-13T08:56:01;22.90;95.80
15103;DHT22;7652;53.584;9.998;2023-05-13T08:59:23;22.60;95.80
15103;DHT22;7652;53.584;9.998;2023-05-13T09:02:44;22.50;96.10
15103;DHT22;7652;53.584;9.998;2023-05-13T09:06:07;22.50;95.90
15103;DHT22;7652;53.584;9.998;2023-05-13T09:09:28;22.50;95.60
15103;DHT22;7652;53.584;9.998;2023-05-13T09:12:52;22.50;94.90
15103;DHT22;7652;53.584;9.998;2023-05-13T09:16:13;22.50;95.10
15103;DHT22;7652;53.584;9.998;2023-05-13T09:19:35;22.40;94.90
15103;DHT22;7652;53.584;9.998;2023-05-13T09:23:00;22.50;94.30
15103;DHT22;7652;53.584;9.998;2023-05-13T09:26:28;22.40;94.50
15103;DHT22;7652;53.584;9.998;2023-05-13T09:29:59;22.30;94.70
15103;DHT22;7652;53.584;9.998;2023-05-13T09:33:20;22.20;95.50
15103;DHT22;7652;53.584;9.998;2023-05-13T09:36:42;22.30;95.70
15103;DHT22;7652;53.584;9.998;2023-05-13T09:40:04;22.30;94.70
15103;DHT22;7652;53.584;9.998;2023-05-13T09:43:27;22.10;95.90
15103;DHT22;7652;53.584;9.998;2023-05-13T09:46:51;22.10;95.80
15103;DHT22;7652;53.584;9.998;2023-05-13T09:50:13;22.20;95.30
15103;DHT22;7652;53.584;9.998;2023-05-13T09:53:34;22.10;94.90
15103;DHT22;7652;53.584;9.998;2023-05-13T09:56:57;22.00;95.50
15103;DHT22;7652;53.584;9.998;2023-05-13T10:00:20;22.10;95.80
15103;DHT22;7652;53.584;9.998;2023-05-13T10:03:54;22.30;95.40
15103;DHT22;7652;53.584;9.998;2023-05-13T10:07:18;22.30;94.50
15103;DHT22;7652;53.584;9.998;2023-05-13T10:10:43;22.20;94.10
15103;DHT22;7652;53.584;9.998;2023-05-13T10:14:05;22.30;94.50
15103;DHT22;7652;53.584;9.998;2023-05-13T10:17:28;22.40;94.40
15103;DHT22;7652;53.584;9.998;2023-05-13T10:20:51;22.50;94.20
15103;DHT22;7652;53.584;9.998;2023-05-13T10:24:13;22.70;94.00
15103;DHT22;7652;53.584;9.998;2023-05-13T10:27:35;22.80;93.80
15103;DHT22;7652;53.584;9.998;2023-05-13T10:30:57;22.90;93.30
15103;DHT22;7652;53.584;9.998;2023-05-13T10:34:18;23.10;91.30
15103;DHT22;7652;53.584;9.998;2023-05-13T10:38:00;23.00;90.20
15103;DHT22;7652;53.584;9.998;2023-05-13T10:42:01;23.00;90.80
15103;DHT22;7652;53.584;9.998;2023-05-13T10:45:27;23.10;91.60
15103;DHT22;7652;53.584;9.998;2023-05-13T10:48:55;23.20;90.70
15103;DHT22;7652;53.584;9.998;2023-05-13T10:52:18;23.30;90.00
15103;DHT22;7652;53.584;9.998;2023-05-13T10:55:43;23.30;89.00
15103;DHT22;7652;53.584;9.998;2023-05-13T10:59:05;23.20;89.20
15103;DHT22;7652;53.584;9.998;2023-05-13T11:02:30;23.20;89.80
15103;DHT22;7652;53.584;9.998;2023-05-13T11:05:59;23.30;87.80
15103;DHT22;7652;53.584;9.998;2023-05-13T11:09:29;23.40;88.00
15103;DHT22;7652;53.584;9.998;2023-05-13T11:13:19;23.60;84.60
15103;DHT22;7652;53.584;9.998;2023-05-13T11:16:47;23.80;86.10
15103;DHT22;7652;53.584;9.998;2023-05-13T11:20:10;23.50;86.20
15103;DHT22;7652;53.584;9.998;2023-05-13T11:23:32;23.40;84.70
15103;DHT22;7652;53.584;9.998;2023-05-13T11:26:56;23.60;84.40
15103;DHT22;7652;53.584;9.998;2023-05-13T11:30:24;23.60;82.70
15103;DHT22;7652;53.584;9.998;2023-05-13T11:34:04;23.90;81.80
15103;DHT22;7652;53.584;9.998;2023-05-13T11:37:26;24.20;81.20
15103;DHT22;7652;53.584;9.998;2023-05-13T11:40:50;24.10;79.00
15103;DHT22;7652;53.584;9.998;2023-05-13T11:44:13;24.10;81.00
15103;DHT22;7652;53.584;9.998;2023-05-13T11:47:36;23.90;80.90
15103;DHT22;7652;53.584;9.998;2023-05-13T11:50:57;23.90;79.90
15103;DHT22;7652;53.584;9.998;2023-05-13T11:54:18;24.00;80.70
15103;DHT22;7652;53.584;9.998;2023-05-13T11:57:40;23.80;80.40
15103;DHT22;7652;53.584;9.998;2023-05-13T12:01:01;23.80;81.30
15103;DHT22;7652;53.584;9.998;2023-05-13T12:04:28;23.70;82.30
15103;DHT22;7652;53.584;9.998;2023-05-13T12:07:50;23.50;80.10
15103;DHT22;7652;53.584;9.998;2023-05-13T12:11:12;23.50;80.60
15103;DHT22;7652;53.584;9.998;2023-05-13T12:14:33;23.40;80.30
15103;DHT22;7652;53.584;9.998;2023-05-13T12:17:55;23.30;79.60
15103;DHT22;7652;53.584;9.998;2023-05-13T12:21:20;23.10;81.10
15103;DHT22;7652;53.584;9.998;2023-05-13T12:24:42;22.90;78.60
15103;DHT22;7652;53.584;9.998;2023-05-13T12:28:14;22.70;79.70
15103;DHT22;7652;53.584;9.998;2023-05-13T12:31:40;22.60;79.20
15103;DHT22;7652;53.584;9.998;2023-05-13T12:35:11;22.70;78.50
15103;DHT22;7652;53.584;9.998;2023-05-13T12:38:34;22.90;76.60
15103;DHT22;7652;53.584;9.998;2023-05-13T12:41:56;23.80;78.00
15103;DHT22;7652;53.584;9.998;2023-05-13T12:45:18;25.10;73.80
15103;DHT22;7652;53.584;9.998;2023-05-13T12:48:40;26.20;63.90
15103;DHT22;7652;53.584;9.998;2023-05-13T12:52:04;27.30;63.80
15103;DHT22;7652;53.584;9.998;2023-05-13T12:55:27;28.40;60.60
15103;DHT22;7652;53.584;9.998;2023-05-13T12:58:48;28.80;58.00
15103;DHT22;7652;53.584;9.998;2023-05-13T13:02:10;29.20;55.70
15103;DHT22;7652;53.584;9.998;2023-05-13T13:05:31;29.00;54.40
15103;DHT22;7652;53.584;9.998;2023-05-13T13:08:53;28.60;54.20
15103;DHT22;7652;53.584;9.998;2023-05-13T13:12:16;27.60;53.30
15103;DHT22;7652;53.584;9.998;2023-05-13T13:15:37;26.40;54.70
15103;DHT22;7652;53.584;9.998;2023-05-13T13:18:58;26.00;55.00
15103;DHT22;7652;53.584;9.998;2023-05-13T13:22:21;26.10;56.70
15103;DHT22;7652;53.584;9.998;2023-05-13T13:25:42;26.40;56.40
15103;DHT22;7652;53.584;9.998;2023-05-13T13:29:05;26.20;56.90
15103;DHT22;7652;53.584;9.998;2023-05-13T13:32:27;26.30;56.70
15103;DHT22;7652;53.584;9.998;2023-05-13T13:35:48;25.90;55.80
15103;DHT22;7652;53.584;9.998;2023-05-13T13:39:10;25.60;55.50
15103;DHT22;7652;53.584;9.998;2023-05-13T13:42:31;25.40;56.60
15103;DHT22;7652;53.584;9.998;2023-05-13T13:46:05;25.40;57.10
15103;DHT22;7652;53.584;9.998;2023-05-13T13:49:26;25.40;56.90
15103;DHT22;7652;53.584;9.998;2023-05-13T13:52:48;25.50;56.70
15103;DHT22;7652;53.584;9.998;2023-05-13T13:56:11;25.40;56.40
15103;DHT22;7652;53.584;9.998;2023-05-13T13:59:33;25.00;56.10
15103;DHT22;7652;53.584;9.998;2023-05-13T14:02:56;24.60;56.70
15103;DHT22;7652;53.584;9.998;2023-05-13T14:06:18;24.40;57.60
15103;DHT22;7652;53.584;9.998;2023-05-13T14:09:40;24.50;58.10
15103;DHT22;7652;53.584;9.998;2023-05-13T14:13:02;24.40;57.60
15103;DHT22;7652;53.584;9.998;2023-05-13T14:16:23;24.30;58.00
15103;DHT22;7652;53.584;9.998;2023-05-13T14:19:46;24.40;58.10
15103;DHT22;7652;53.584;9.998;2023-05-13T14:23:10;24.30;57.40
15103;DHT22;7652;53.584;9.998;2023-05-13T14:26:32;24.40;57.20
15103;DHT22;7652;53.584;9.998;2023-05-13T14:29:53;24.30;57.20
15103;DHT22;7652;53.584;9.998;2023-05-13T14:33:15;24.20;55.30
15103;DHT22;7652;53.584;9.998;2023-05-13T14:36:37;24.20;55.90
15103;DHT22;7652;53.584;9.998;2023-05-13T14:39:59;24.20;56.80
15103;DHT22;7652;53.584;9.998;2023-05-13T14:43:20;24.10;56.00
15103;DHT22;7652;53.584;9.998;2023-05-13T14:46:41;24.00;56.10
15103;DHT22;7652;53.584;9.998;2023-05-13T14:50:04;24.00;56.70
15103;DHT22;7652;53.584;9.998;2023-05-13T14:53:26;23.90;56.00
15103;DHT22;7652;53.584;9.998;2023-05-13T14:56:49;23.70;56.20
15103;DHT22;7652;53.584;9.998;2023-05-13T15:00:12;23.90;56.70
15103;DHT22;7652;53.584;9.998;2023-05-13T15:03:33;24.00;55.90
15103;DHT22;7652;53.584;9.998;2023-05-13T15:07:01;24.00;55.40
15103;DHT22;7652;53.584;9.998;2023-05-13T15:10:24;23.80;55.60
15103;DHT22;7652;53.584;9.998;2023-05-13T15:13:45;23.50;56.60
15103;DHT22;7652;53.584;9.998;2023-05-13T15:17:07;23.20;56.30
15103;DHT22;7652;53.584;9.998;2023-05-13T15:20:30;23.20;58.10
15103;DHT22;7652;53.584;9.998;2023-05-13T15:23:52;23.20;57.00
15103;DHT22;7652;53.584;9.998;2023-05-13T15:27:15;23.30;57.00
15103;DHT22;7652;53.584;9.998;2023-05-13T15:30:38;23.30;57.20
15103;DHT22;7652;53.584;9.998;2023-05-13T15:34:01;23.40;56.60
15103;DHT22;7652;53.584;9.998;2023-05-13T15:37:22;23.50;56.30
15103;DHT22;7652;53.584;9.998;2023-05-13T15:40:44;23.50;56.20
15103;DHT22;7652;53.584;9.998;2023-05-13T15:44:07;23.60;56.10
15103;DHT22;7652;53.584;9.998;2023-05-13T15:47:29;23.60;56.30
15103;DHT22;7652;53.584;9.998;2023-05-13T15:50:56;23.60;56.20
15103;DHT22;7652;53.584;9.998;2023-05-13T15:54:17;23.50;55.30
15103;DHT22;7652;53.584;9.998;2023-05-13T15:57:39;23.20;55.70
15103;DHT22;7652;53.584;9.998;2023-05-13T16:01:01;23.10;55.70
15103;DHT22;7652;53.584;9.998;2023-05-13T16:04:23;23.00;56.50
15103;DHT22;7652;53.584;9.998;2023-05-13T16:07:44;22.80;55.70
15103;DHT22;7652;53.584;9.998;2023-05-13T16:11:06;22.70;56.70
15103;DHT22;7652;53.584;9.998;2023-05-13T16:14:27;22.70;57.50
15103;DHT22;7652;53.584;9.998;2023-05-13T16:17:51;22.80;57.10
15103;DHT22;7652;53.584;9.998;2023-05-13T16:21:13;22.80;56.60
15103;DHT22;7652;53.584;9.998;2023-05-13T16:24:35;22.80;56.60
15103;DHT22;7652;53.584;9.998;2023-05-13T16:27:56;22.90;56.80
15103;DHT22;7652;53.584;9.998;2023-05-13T16:31:18;22.90;57.10
15103;DHT22;7652;53.584;9.998;2023-05-13T16:34:40;22.90;56.40
15103;DHT22;7652;53.584;9.998;2023-05-13T16:38:02;22.80;56.30
15103;DHT22;7652;53.584;9.998;2023-05-13T16:41:24;22.80;56.80
15103;DHT22;7652;53.584;9.998;2023-05-13T16:44:46;22.80;57.10
15103;DHT22;7652;53.584;9.998;2023-05-13T16:48:07;22.70;56.80
15103;DHT22;7652;53.584;9.998;2023-05-13T16:51:30;22.80;56.40
15103;DHT22;7652;53.584;9.998;2023-05-13T16:54:52;22.70;57.20
15103;DHT22;7652;53.584;9.998;2023-05-13T16:58:17;22.60;57.20
15103;DHT22;7652;53.584;9.998;2023-05-13T17:01:39;22.60;57.50
15103;DHT22;7652;53.584;9.998;2023-05-13T17:05:01;22.60;56.90
15103;DHT22;7652;53.584;9.998;2023-05-13T17:08:24;22.60;57.10
15103;DHT22;7652;53.584;9.998;2023-05-13T17:11:45;22.50;57.00
15103;DHT22;7652;53.584;9.998;2023-05-13T17:15:07;22.40;57.30
15103;DHT22;7652;53.584;9.998;2023-05-13T17:18:29;22.30;57.60
15103;DHT22;7652;53.584;9.998;2023-05-13T17:21:50;22.30;58.10
15103;DHT22;7652;53.584;9.998;2023-05-13T17:25:13;22.20;58.50
15103;DHT22;7652;53.584;9.998;2023-05-13T17:28:35;22.20;57.90
15103;DHT22;7652;53.584;9.998;2023-05-13T17:31:59;22.10;58.40
15103;DHT22;7652;53.584;9.998;2023-05-13T17:35:20;22.10;59.30
15103;DHT22;7652;53.584;9.998;2023-05-13T17:38:42;22.10;58.80
15103;DHT22;7652;53.584;9.998;2023-05-13T17:42:05;22.00;59.20
15103;DHT22;7652;53.584;9.998;2023-05-13T17:45:27;22.00;58.70
15103;DHT22;7652;53.584;9.998;2023-05-13T17:48:48;21.90;58.20
15103;DHT22;7652;53.584;9.998;2023-05-13T17:52:10;21.90;58.20
15103;DHT22;7652;53.584;9.998;2023-05-13T17:55:31;21.90;58.30
15103;DHT22;7652;53.584;9.998;2023-05-13T17:58:54;21.80;59.00
15103;DHT22;7652;53.584;9.998;2023-05-13T18:02:16;21.70;59.40
15103;DHT22;7652;53.584;9.998;2023-05-13T18:05:37;21.70;60.00
15103;DHT22;7652;53.584;9.998;2023-05-13T18:08:59;21.60;62.00
15103;DHT22;7652;53.584;9.998;2023-05-13T18:12:21;21.60;63.40
15103;DHT22;7652;53.584;9.998;2023-05-13T18:15:44;21.50;64.70
15103;DHT22;7652;53.584;9.998;2023-05-13T18:19:05;21.40;66.70
15103;DHT22;7652;53.584;9.998;2023-05-13T18:22:27;21.30;69.50
15103;DHT22;7652;53.584;9.998;2023-05-13T18:25:49;21.20;71.10
15103;DHT22;7652;53.584;9.998;2023-05-13T18:29:15;21.10;72.50
15103;DHT22;7652;53.584;9.998;2023-05-13T18:32:38;21.00;73.40
15103;DHT22;7652;53.584;9.998;2023-05-13T18:36:00;20.90;74.10
15103;DHT22;7652;53.584;9.998;2023-05-13T18:39:21;20.80;74.60
15103;DHT22;7652;53.584;9.998;2023-05-13T18:42:43;20.60;76.00
15103;DHT22;7652;53.584;9.998;2023-05-13T18:46:04;20.50;77.00
15103;DHT22;7652;53.584;9.998;2023-05-13T18:49:27;20.30;78.00
15103;DHT22;7652;53.584;9.998;2023-05-13T18:52:49;20.20;78.80
15103;DHT22;7652;53.584;9.998;2023-05-13T18:56:10;20.10;79.80
15103;DHT22;7652;53.584;9.998;2023-05-13T18:59:31;19.90;79.60
15103;DHT22;7652;53.584;9.998;2023-05-13T19:02:53;19.80;80.00
15103;DHT22;7652;53.584;9.998;2023-05-13T19:06:16;19.60;81.40
15103;DHT22;7652;53.584;9.998;2023-05-13T19:09:37;19.50;80.10
15103;DHT22;7652;53.584;9.998;2023-05-13T19:12:59;19.40;80.90
15103;DHT22;7652;53.584;9.998;2023-05-13T19:16:20;19.30;81.60
15103;DHT22;7652;53.584;9.998;2023-05-13T19:19:42;19.20;81.90
15103;DHT22;7652;53.584;9.998;2023-05-13T19:23:04;19.10;82.90
15103;DHT22;7652;53.584;9.998;2023-05-13T19:26:25;19.00;83.40
15103;DHT22;7652;53.584;9.998;2023-05-13T19:29:47;18.90;84.00
15103;DHT22;7652;53.584;9.998;2023-05-13T19:33:09;18.90;84.30
15103;DHT22;7652;53.584;9.998;2023-05-13T19:36:30;18.80;85.00
15103;DHT22;7652;53.584;9.998;2023-05-13T19:39:53;18.60;85.80
15103;DHT22;7652;53.584;9.998;2023-05-13T19:43:14;18.60;86.50
15103;DHT22;7652;53.584;9.998;2023-05-13T19:46:36;18.50;87.10
15103;DHT22;7652;53.584;9.998;2023-05-13T19:49:58;18.40;87.80
15103;DHT22;7652;53.584;9.998;2023-05-13T19:53:19;18.30;88.70
15103;DHT22;7652;53.584;9.998;2023-05-13T19:56:42;18.30;89.20
15103;DHT22;7652;53.584;9.998;2023-05-13T20:00:05;18.20;90.10
15103;DHT22;7652;53.584;9.998;2023-05-13T20:03:27;18.10;90.50
15103;DHT22;7652;53.584;9.998;2023-05-13T20:06:49;18.00;91.20
15103;DHT22;7652;53.584;9.998;2023-05-13T20:10:10;17.90;91.50
15103;DHT22;7652;53.584;9.998;2023-05-13T20:13:33;17.80;91.90
15103;DHT22;7652;53.584;9.998;2023-05-13T20:16:55;17.80;92.40
15103;DHT22;7652;53.584;9.998;2023-05-13T20:20:17;17.80;92.60
15103;DHT22;7652;53.584;9.998;2023-05-13T20:23:38;17.80;93.20
15103;DHT22;7652;53.584;9.998;2023-05-13T20:27:00;17.80;93.70
15103;DHT22;7652;53.584;9.998;2023-05-13T20:30:23;17.70;93.80
15103;DHT22;7652;53.584;9.998;2023-05-13T20:33:45;17.60;94.60
15103;DHT22;7652;53.584;9.998;2023-05-13T20:37:07;17.60;95.10
15103;DHT22;7652;53.584;9.998;2023-05-13T20:40:28;17.50;95.80
15103;DHT22;7652;53.584;9.998;2023-05-13T20:43:49;17.30;96.70
15103;DHT22;7652;53.584;9.998;2023-05-13T20:47:12;17.30;97.50
15103;DHT22;7652;53.584;9.998;2023-05-13T20:50:35;17.20;98.00
15103;DHT22;7652;53.584;9.998;2023-05-13T20:53:56;17.20;98.40
15103;DHT22;7652;53.584;9.998;2023-05-13T20:57:18;17.10;99.10
15103;DHT22;7652;53.584;9.998;2023-05-13T21:00:39;17.10;99.90
15103;DHT22;7652;53.584;9.998;2023-05-13T21:04:03;17.10;99.90
15103;DHT22;7652;53.584;9.998;2023-05-13T21:07:25;17.10;99.90
15103;DHT22;7652;53.584;9.998;2023-05-13T21:10:47;16.90;99.90
15103;DHT22;7652;53.584;9.998;2023-05-13T21:14:09;16.90;99.90
15103;DHT22;7652;53.584;9.998;2023-05-13T21:17:30;16.90;99.90
15103;DHT22;7652;53.584;9.998;2023-05-13T21:20:53;16.80;99.90
15103;DHT22;7652;53.584;9.998;2023-05-13T21:24:15;16.70;99.90
15103;DHT22;7652;53.584;9.998;2023-05-13T21:27:37;16.60;99.90
15103;DHT22;7652;53.584;9.998;2023-05-13T21:30:59;16.60;99.90
15103;DHT22;7652;53.584;9.998;2023-05-13T21:34:20;16.50;99.90
15103;DHT22;7652;53.584;9.998;2023-05-13T21:37:43;16.40;99.90